createdAt,value
2023-04-20T00:01:49.691Z,8.60
2023-04-20T00:04:18.365Z,8.67
2023-04-20T00:06:46.728Z,8.79
2023-04-20T00:09:16.304Z,8.65
2023-04-20T00:11:44.716Z,8.62
2023-04-20T00:14:13.037Z,8.71
2023-04-20T00:16:41.356Z,8.73
2023-04-20T00:19:11.145Z,8.60
2023-04-20T00:21:39.573Z,8.50
2023-04-20T00:24:08.402Z,8.58
2023-04-20T00:26:36.709Z,8.55
2023-04-20T00:29:05.247Z,8.53
2023-04-20T00:31:33.652Z,8.45
2023-04-20T00:34:01.879Z,8.41
2023-04-20T00:36:31.634Z,8.32
2023-04-20T00:39:01.188Z,8.36
2023-04-20T00:41:30.366Z,8.32
2023-04-20T00:44:00.946Z,8.27
2023-04-20T00:46:29.362Z,8.23
2023-04-20T00:48:59.470Z,8.19
2023-04-20T00:51:29.423Z,8.09
2023-04-20T00:54:01.261Z,8.13
2023-04-20T00:56:29.671Z,8.06
2023-04-20T00:58:57.954Z,8.02
2023-04-20T01:01:27.378Z,8.05
2023-04-20T01:03:56.086Z,8.06
2023-04-20T01:06:24.424Z,7.85
2023-04-20T01:08:55.166Z,8.02
2023-04-20T01:11:24.887Z,7.98
2023-04-20T01:13:53.133Z,7.91
2023-04-20T01:16:21.763Z,7.85
2023-04-20T01:18:51.779Z,7.92
2023-04-20T01:21:22.522Z,7.86
2023-04-20T01:23:52.413Z,7.81
2023-04-20T01:26:21.739Z,7.76
2023-04-20T01:28:52.386Z,7.84
2023-04-20T01:31:21.239Z,7.79
2023-04-20T01:33:50.105Z,7.65
2023-04-20T01:36:22.358Z,7.70
2023-04-20T01:38:52.186Z,7.71
2023-04-20T01:41:21.034Z,7.64
2023-04-20T01:43:50.602Z,7.60
2023-04-20T01:46:18.971Z,7.44
2023-04-20T01:48:48.605Z,7.45
2023-04-20T01:51:17.018Z,7.34
2023-04-20T01:53:45.789Z,7.34
2023-04-20T01:56:15.560Z,7.27
2023-04-20T01:58:44.120Z,7.30
2023-04-20T02:01:12.420Z,7.19
2023-04-20T02:03:41.116Z,7.07
2023-04-20T02:06:09.963Z,7.17
2023-04-20T02:08:38.247Z,7.12
2023-04-20T02:11:09.411Z,7.07
2023-04-20T02:13:39.090Z,7.20
2023-04-20T02:16:08.012Z,7.01
2023-04-20T02:18:37.356Z,7.07
2023-04-20T02:21:06.329Z,7.24
2023-04-20T02:23:34.771Z,7.07
2023-04-20T02:26:02.981Z,6.95
2023-04-20T02:28:31.228Z,7.01
2023-04-20T02:31:00.908Z,7.00
2023-04-20T02:33:29.283Z,6.87
2023-04-20T02:35:57.512Z,6.95
2023-04-20T02:38:25.931Z,6.79
2023-04-20T02:40:54.233Z,6.80
2023-04-20T02:43:22.600Z,6.82
2023-04-20T02:45:51.178Z,6.68
2023-04-20T02:48:23.243Z,6.68
2023-04-20T02:50:51.559Z,6.59
2023-04-20T02:53:23.101Z,6.69
2023-04-20T02:56:11.645Z,6.70
2023-04-20T02:58:48.293Z,6.68
2023-04-20T03:01:30.783Z,6.67
2023-04-20T03:04:13.850Z,6.61
2023-04-20T03:06:51.567Z,6.63
2023-04-20T03:09:25.878Z,6.72
2023-04-20T03:11:59.398Z,6.76
2023-04-20T03:14:45.140Z,6.66
2023-04-20T03:17:13.492Z,6.61
2023-04-20T03:19:43.767Z,6.56
2023-04-20T03:22:12.053Z,6.44
2023-04-20T03:24:40.336Z,6.37
2023-04-20T03:27:19.362Z,6.16
2023-04-20T03:30:01.510Z,6.22
2023-04-20T03:32:32.740Z,6.20
2023-04-20T03:35:11.310Z,6.14
2023-04-20T03:37:41.381Z,6.07
2023-04-20T03:40:11.118Z,5.95
2023-04-20T03:42:39.467Z,6.09
2023-04-20T03:45:08.526Z,6.02
2023-04-20T03:47:36.897Z,5.97
2023-04-20T03:50:05.899Z,6.04
2023-04-20T03:52:35.613Z,5.99
2023-04-20T03:55:07.565Z,5.98
2023-04-20T03:57:39.183Z,5.95
2023-04-20T04:00:10.847Z,5.96
2023-04-20T04:02:57.020Z,5.89
2023-04-20T04:05:29.355Z,5.89
2023-04-20T04:07:59.091Z,5.86
2023-04-20T04:10:28.560Z,5.78
2023-04-20T04:12:56.788Z,5.81
2023-04-20T04:15:25.292Z,5.82
2023-04-20T04:18:03.419Z,5.83
2023-04-20T04:20:34.130Z,5.85
2023-04-20T04:23:04.186Z,5.91
2023-04-20T04:25:44.080Z,5.92
2023-04-20T04:28:14.839Z,6.00
2023-04-20T04:31:05.991Z,6.02
2023-04-20T04:33:35.571Z,6.06
2023-04-20T04:36:06.175Z,6.20
2023-04-20T04:38:37.330Z,6.21
2023-04-20T04:41:05.904Z,6.33
2023-04-20T04:43:34.663Z,6.40
2023-04-20T04:46:14.929Z,6.49
2023-04-20T04:48:43.475Z,6.58
2023-04-20T04:51:12.382Z,6.66
2023-04-20T04:53:45.288Z,6.74
2023-04-20T04:56:14.223Z,6.74
2023-04-20T04:58:42.504Z,6.84
2023-04-20T05:01:11.222Z,6.96
2023-04-20T05:03:39.920Z,6.98
2023-04-20T05:06:08.769Z,7.10
2023-04-20T05:08:36.984Z,7.14
2023-04-20T05:11:06.778Z,7.24
2023-04-20T05:13:35.287Z,7.33
2023-04-20T05:16:03.631Z,7.41
2023-04-20T05:18:31.940Z,7.47
2023-04-20T05:21:01.050Z,7.49
2023-04-20T05:23:29.427Z,7.57
2023-04-20T05:25:57.967Z,7.68
2023-04-20T05:28:27.976Z,7.73
2023-04-20T05:30:56.234Z,7.79
2023-04-20T05:33:24.445Z,7.75
2023-04-20T05:35:56.550Z,7.89
2023-04-20T05:38:24.904Z,7.89
2023-04-20T05:40:53.296Z,8.00
2023-04-20T05:43:21.577Z,7.90
2023-04-20T05:45:51.229Z,7.87
2023-04-20T05:48:19.521Z,7.84
2023-04-20T05:50:48.223Z,7.79
2023-04-20T05:53:16.647Z,7.85
2023-04-20T05:55:44.853Z,7.78
2023-04-20T05:58:13.225Z,7.82
2023-04-20T06:00:41.804Z,7.82
2023-04-20T06:03:11.512Z,7.90
2023-04-20T06:05:40.025Z,7.92
2023-04-20T06:08:08.355Z,7.93
2023-04-20T06:10:36.601Z,7.89
2023-04-20T06:13:04.875Z,7.89
2023-04-20T06:15:33.258Z,7.88
2023-04-20T06:18:01.949Z,8.02
2023-04-20T06:20:31.612Z,8.04
2023-04-20T06:22:59.873Z,8.18
2023-04-20T06:25:28.381Z,8.17
2023-04-20T06:27:56.710Z,8.26
2023-04-20T06:30:24.961Z,8.27
2023-04-20T06:32:53.288Z,8.41
2023-04-20T06:35:22.619Z,8.35
2023-04-20T06:37:52.355Z,8.39
2023-04-20T06:40:20.616Z,8.38
2023-04-20T06:42:48.889Z,8.37
2023-04-20T06:45:18.232Z,8.28
2023-04-20T06:47:46.625Z,8.18
2023-04-20T06:50:14.993Z,8.17
2023-04-20T06:52:43.332Z,8.14
2023-04-20T06:55:13.368Z,8.15
2023-04-20T06:57:44.035Z,8.29
2023-04-20T07:00:13.600Z,8.38
2023-04-20T07:02:46.565Z,8.62
2023-04-20T07:05:15.434Z,8.57
2023-04-20T07:07:43.820Z,8.56
2023-04-20T07:10:15.077Z,8.65
2023-04-20T07:12:44.247Z,8.76
2023-04-20T07:15:13.137Z,8.79
2023-04-20T07:17:41.919Z,8.76
2023-04-20T07:20:11.129Z,8.68
2023-04-20T07:22:40.251Z,8.77
2023-04-20T07:25:10.022Z,8.77
2023-04-20T07:27:40.985Z,8.75
2023-04-20T07:30:10.798Z,8.87
2023-04-20T07:32:39.506Z,8.91
2023-04-20T07:35:08.930Z,8.91
2023-04-20T07:37:37.246Z,8.93
2023-04-20T07:40:07.000Z,9.10
2023-04-20T07:42:37.122Z,8.95
2023-04-20T07:45:08.144Z,9.01
2023-04-20T07:47:36.911Z,8.87
2023-04-20T07:50:05.898Z,8.91
2023-04-20T07:52:35.739Z,8.77
2023-04-20T07:55:03.982Z,8.88
2023-04-20T07:57:33.494Z,9.02
2023-04-20T08:00:01.745Z,9.04
2023-04-20T08:02:43.308Z,9.29
2023-04-20T08:05:11.953Z,9.27
2023-04-20T08:07:40.758Z,9.31
2023-04-20T08:10:10.602Z,9.38
2023-04-20T08:12:39.836Z,9.38
2023-04-20T08:15:09.624Z,9.26
2023-04-20T08:17:38.310Z,9.29
2023-04-20T08:20:10.697Z,9.31
2023-04-20T08:22:39.801Z,9.40
2023-04-20T08:25:08.534Z,9.48
2023-04-20T08:27:36.882Z,9.30
2023-04-20T08:30:06.055Z,9.44
2023-04-20T08:32:35.210Z,9.61
2023-04-20T08:35:04.411Z,9.34
2023-04-20T08:37:34.155Z,9.47
2023-04-20T08:40:02.452Z,9.53
2023-04-20T08:42:30.716Z,9.66
2023-04-20T08:44:59.362Z,9.75
2023-04-20T08:47:30.069Z,9.89
2023-04-20T08:50:00.892Z,9.91
2023-04-20T08:52:29.236Z,10.09
2023-04-20T08:54:58.848Z,10.18
2023-04-20T08:57:27.221Z,9.84
2023-04-20T08:59:56.107Z,10.00
2023-04-20T09:02:24.530Z,9.94
2023-04-20T09:05:02.981Z,9.93
2023-04-20T09:07:31.497Z,9.97
2023-04-20T09:10:02.127Z,9.71
2023-04-20T09:12:30.368Z,9.71
2023-04-20T09:14:58.607Z,9.89
2023-04-20T09:17:34.787Z,9.81
2023-04-20T09:20:05.062Z,10.31
2023-04-20T09:22:34.295Z,10.80
2023-04-20T09:25:14.591Z,10.80
2023-04-20T09:27:42.872Z,11.14
2023-04-20T09:30:11.933Z,10.41
2023-04-20T09:32:40.206Z,10.21
2023-04-20T09:35:09.133Z,10.48
2023-04-20T09:37:47.759Z,10.70
2023-04-20T09:40:18.153Z,10.43
2023-04-20T09:42:49.514Z,10.59
2023-04-20T09:45:18.891Z,10.53
2023-04-20T09:47:49.959Z,10.38
2023-04-20T09:50:26.731Z,10.34
2023-04-20T09:53:01.766Z,10.50
2023-04-20T09:55:32.154Z,10.30
2023-04-20T09:58:03.012Z,10.25
2023-04-20T10:00:31.538Z,10.20
2023-04-20T10:02:59.971Z,10.34
2023-04-20T10:05:36.748Z,10.40
2023-04-20T10:08:05.131Z,10.36
2023-04-20T10:10:51.487Z,10.27
2023-04-20T10:13:21.969Z,10.37
2023-04-20T10:15:50.388Z,10.58
2023-04-20T10:18:20.893Z,10.85
2023-04-20T10:20:49.496Z,10.80
2023-04-20T10:23:19.831Z,10.53
2023-04-20T10:26:01.097Z,10.34
2023-04-20T10:28:40.721Z,10.28
2023-04-20T10:31:13.043Z,10.42
2023-04-20T10:33:51.294Z,10.37
2023-04-20T10:36:28.385Z,10.38
2023-04-20T10:38:57.142Z,10.82
2023-04-20T10:41:27.218Z,10.73
2023-04-20T10:43:55.455Z,10.49
2023-04-20T10:46:25.314Z,10.81
2023-04-20T10:48:55.143Z,10.86
2023-04-20T10:51:24.147Z,11.26
2023-04-20T10:54:04.625Z,11.52
2023-04-20T10:56:42.153Z,11.37
2023-04-20T10:59:11.361Z,11.31
2023-04-20T11:01:39.835Z,11.23
2023-04-20T11:04:08.212Z,11.17
2023-04-20T11:06:37.860Z,11.10
2023-04-20T11:09:06.259Z,11.01
2023-04-20T11:11:37.359Z,11.38
2023-04-20T11:14:11.603Z,11.71
2023-04-20T11:16:51.346Z,11.90
2023-04-20T11:19:28.030Z,11.66
2023-04-20T11:21:56.584Z,11.48
2023-04-20T11:24:26.386Z,11.39
2023-04-20T11:26:56.154Z,11.26
2023-04-20T11:29:34.137Z,11.07
2023-04-20T11:32:05.148Z,10.69
2023-04-20T11:34:34.260Z,10.54
2023-04-20T11:37:05.642Z,10.48
2023-04-20T11:39:34.336Z,10.24
2023-04-20T11:42:02.850Z,10.20
2023-04-20T11:44:33.018Z,10.27
2023-04-20T11:47:01.940Z,10.31
2023-04-20T11:49:30.944Z,10.13
2023-04-20T11:51:59.448Z,9.86
2023-04-20T11:54:29.697Z,10.15
2023-04-20T11:56:59.065Z,9.92
2023-04-20T11:59:27.406Z,9.95
2023-04-20T12:01:57.079Z,10.01
2023-04-20T12:04:25.992Z,10.10
2023-04-20T12:06:54.543Z,10.23
2023-04-20T12:09:22.824Z,10.42
2023-04-20T12:11:51.073Z,10.52
2023-04-20T12:14:19.512Z,10.45
2023-04-20T12:16:47.905Z,10.55
2023-04-20T12:19:17.872Z,10.64
2023-04-20T12:21:47.334Z,10.66
2023-04-20T12:24:15.650Z,10.78
2023-04-20T12:26:43.910Z,10.69
2023-04-20T12:29:12.204Z,10.81
2023-04-20T12:31:40.585Z,10.78
2023-04-20T12:34:08.931Z,10.67
2023-04-20T12:36:40.497Z,10.93
2023-04-20T12:39:08.819Z,10.94
2023-04-20T12:41:37.053Z,11.16
2023-04-20T12:44:07.629Z,11.22
2023-04-20T12:46:37.845Z,11.94
2023-04-20T12:49:06.255Z,12.50
2023-04-20T12:51:34.459Z,12.57
2023-04-20T12:54:04.342Z,12.40
2023-04-20T12:56:32.692Z,12.67
2023-04-20T12:59:00.926Z,12.52
2023-04-20T13:01:29.267Z,12.45
2023-04-20T13:03:57.909Z,12.65
2023-04-20T13:06:26.414Z,11.87
2023-04-20T13:08:54.761Z,11.14
2023-04-20T13:11:26.702Z,11.15
2023-04-20T13:13:56.531Z,11.36
2023-04-20T13:16:25.149Z,11.55
2023-04-20T13:18:53.386Z,11.88
2023-04-20T13:21:22.042Z,11.41
2023-04-20T13:23:50.366Z,11.10
2023-04-20T13:26:18.719Z,10.81
2023-04-20T13:28:48.398Z,10.64
2023-04-20T13:31:16.678Z,10.53
2023-04-20T13:33:45.095Z,10.33
2023-04-20T13:36:13.344Z,10.05
2023-04-20T13:38:41.609Z,9.88
2023-04-20T13:41:09.844Z,9.93
2023-04-20T13:43:38.054Z,9.85
2023-04-20T13:46:07.822Z,9.96
2023-04-20T13:48:36.078Z,9.96
2023-04-20T13:51:04.312Z,10.26
2023-04-20T13:53:32.616Z,10.08
2023-04-20T13:56:01.021Z,10.04
2023-04-20T13:58:29.620Z,10.27
2023-04-20T14:00:57.945Z,10.60
2023-04-20T14:03:28.065Z,10.69
2023-04-20T14:05:56.410Z,11.43
2023-04-20T14:08:24.806Z,11.40
2023-04-20T14:10:53.082Z,11.30
2023-04-20T14:13:21.506Z,11.03
2023-04-20T14:15:49.864Z,10.29
2023-04-20T14:18:18.275Z,9.92
2023-04-20T14:20:52.219Z,9.60
2023-04-20T14:23:20.602Z,9.33
2023-04-20T14:25:48.853Z,8.76
2023-04-20T14:28:17.854Z,9.04
2023-04-20T14:30:46.412Z,9.34
2023-04-20T14:33:14.868Z,9.69
2023-04-20T14:35:43.152Z,9.92
2023-04-20T14:38:12.798Z,9.79
2023-04-20T14:40:41.509Z,11.15
2023-04-20T14:43:10.098Z,11.19
2023-04-20T14:45:41.508Z,12.27
2023-04-20T14:48:09.799Z,13.21
2023-04-20T14:50:38.195Z,13.83
2023-04-20T14:53:06.489Z,14.81
2023-04-20T14:55:36.297Z,14.55
2023-04-20T14:58:04.575Z,14.56
2023-04-20T15:00:32.954Z,14.37
2023-04-20T15:03:01.448Z,13.79
2023-04-20T15:05:31.642Z,13.92
2023-04-20T15:08:00.107Z,12.38
2023-04-20T15:10:28.355Z,11.81
2023-04-20T15:12:58.030Z,11.09
2023-04-20T15:15:34.574Z,10.36
2023-04-20T15:18:10.028Z,9.47
2023-04-20T15:20:38.293Z,9.24
2023-04-20T15:23:06.639Z,8.93
2023-04-20T15:25:34.955Z,8.58
2023-04-20T15:28:13.578Z,8.19
2023-04-20T15:30:42.180Z,7.89
2023-04-20T15:33:10.901Z,7.85
2023-04-20T15:35:39.608Z,7.77
2023-04-20T15:38:12.991Z,8.01
2023-04-20T15:40:41.624Z,8.56
2023-04-20T15:43:09.934Z,9.55
2023-04-20T15:45:39.545Z,11.34
2023-04-20T15:48:09.080Z,12.36
2023-04-20T15:50:37.399Z,12.72
2023-04-20T15:53:05.644Z,11.63
2023-04-20T15:55:35.671Z,10.82
2023-04-20T15:58:03.986Z,10.58
2023-04-20T16:00:32.515Z,11.97
2023-04-20T16:03:02.507Z,11.10
2023-04-20T16:05:31.089Z,10.20
2023-04-20T16:07:59.363Z,9.74
2023-04-20T16:10:28.072Z,9.54
2023-04-20T16:12:56.879Z,9.94
2023-04-20T16:15:25.753Z,11.32
2023-04-20T16:17:54.661Z,12.72
2023-04-20T16:20:24.487Z,11.94
2023-04-20T16:22:52.772Z,13.03
2023-04-20T16:25:24.039Z,13.52
2023-04-20T16:27:52.540Z,12.84
2023-04-20T16:30:21.242Z,12.33
2023-04-20T16:32:49.741Z,11.20
2023-04-20T16:35:18.117Z,11.14
2023-04-20T16:37:47.983Z,10.86
2023-04-20T16:40:16.262Z,10.51
2023-04-20T16:42:44.544Z,10.28
2023-04-20T16:45:12.957Z,9.66
2023-04-20T16:47:41.357Z,9.72
2023-04-20T16:50:11.809Z,9.71
2023-04-20T16:52:40.072Z,9.81
2023-04-20T16:55:10.833Z,10.97
2023-04-20T16:57:39.121Z,11.61
2023-04-20T17:00:10.750Z,12.90
2023-04-20T17:02:39.273Z,12.87
2023-04-20T17:05:08.636Z,13.10
2023-04-20T17:07:37.402Z,12.12
2023-04-20T17:10:07.296Z,11.11
2023-04-20T17:12:37.438Z,10.35
2023-04-20T17:15:07.938Z,10.35
2023-04-20T17:17:36.231Z,10.21
2023-04-20T17:20:07.007Z,10.04
2023-04-20T17:22:36.505Z,10.20
2023-04-20T17:25:07.444Z,10.03
2023-04-20T17:27:37.572Z,10.04
2023-04-20T17:30:07.167Z,10.00
2023-04-20T17:32:35.682Z,9.94
2023-04-20T17:35:04.411Z,9.88
2023-04-20T17:37:32.744Z,9.97
2023-04-20T17:40:01.487Z,10.04
2023-04-20T17:42:29.764Z,9.97
2023-04-20T17:44:59.419Z,10.09
2023-04-20T17:47:28.482Z,10.07
2023-04-20T17:49:57.072Z,10.33
2023-04-20T17:52:25.313Z,10.29
2023-04-20T17:54:54.582Z,10.30
2023-04-20T17:57:22.859Z,10.27
2023-04-20T17:59:51.118Z,10.04
2023-04-20T18:02:21.148Z,9.90
2023-04-20T18:04:49.763Z,9.94
2023-04-20T18:07:18.774Z,10.03
2023-04-20T18:09:47.124Z,10.00
2023-04-20T18:12:15.548Z,9.97
2023-04-20T18:14:44.136Z,10.11
2023-04-20T18:17:12.643Z,10.20
2023-04-20T18:19:42.332Z,10.03
2023-04-20T18:22:10.631Z,9.99
2023-04-20T18:24:39.080Z,9.93
2023-04-20T18:27:07.323Z,9.82
2023-04-20T18:29:35.820Z,9.81
2023-04-20T18:32:04.253Z,9.84
2023-04-20T18:34:32.556Z,9.78
2023-04-20T18:37:02.136Z,9.64
2023-04-20T18:39:30.905Z,9.57
2023-04-20T18:41:59.150Z,9.59
2023-04-20T18:44:28.387Z,9.60
2023-04-20T18:46:56.836Z,9.62
2023-04-20T18:49:25.163Z,9.61
2023-04-20T18:51:53.606Z,9.49
2023-04-20T18:54:23.330Z,9.34
2023-04-20T18:56:52.244Z,9.39
2023-04-20T18:59:20.625Z,9.30
2023-04-20T19:01:49.873Z,9.35
2023-04-20T19:04:18.656Z,9.27
2023-04-20T19:06:47.214Z,9.15
2023-04-20T19:09:15.699Z,9.16
2023-04-20T19:11:45.350Z,9.14
2023-04-20T19:14:13.671Z,9.10
2023-04-20T19:16:42.032Z,9.00
2023-04-20T19:19:10.712Z,8.93
2023-04-20T19:21:39.042Z,8.89
2023-04-20T19:24:08.500Z,8.88
2023-04-20T19:26:36.814Z,8.72
2023-04-20T19:29:06.553Z,8.57
2023-04-20T19:31:37.922Z,8.65
2023-04-20T19:34:07.462Z,8.53
2023-04-20T19:36:35.922Z,8.42
2023-04-20T19:39:04.270Z,8.39
2023-04-20T19:41:32.532Z,8.26
2023-04-20T19:44:04.469Z,8.16
2023-04-20T19:46:34.665Z,8.22
2023-04-20T19:49:03.459Z,8.14
2023-04-20T19:51:32.807Z,8.07
2023-04-20T19:54:03.252Z,8.11
2023-04-20T19:56:31.882Z,8.21
2023-04-20T19:59:00.219Z,8.26
2023-04-20T20:01:28.631Z,8.27
2023-04-20T20:03:58.475Z,8.15
2023-04-20T20:06:27.510Z,8.16
2023-04-20T20:08:55.878Z,8.13
2023-04-20T20:11:25.381Z,8.04
2023-04-20T20:13:54.165Z,8.06
2023-04-20T20:16:22.619Z,7.99
2023-04-20T20:18:51.411Z,7.94
2023-04-20T20:21:21.252Z,7.97
2023-04-20T20:23:49.581Z,7.98
2023-04-20T20:26:17.878Z,7.85
2023-04-20T20:28:46.241Z,7.84
2023-04-20T20:31:14.563Z,7.79
2023-04-20T20:33:43.096Z,7.60
2023-04-20T20:36:11.425Z,7.86
2023-04-20T20:38:41.301Z,7.67
2023-04-20T20:41:10.853Z,7.67
2023-04-20T20:43:41.909Z,7.65
2023-04-20T20:46:10.497Z,7.60
2023-04-20T20:48:38.832Z,7.77
2023-04-20T20:51:07.141Z,7.86
2023-04-20T20:53:35.431Z,7.88
2023-04-20T20:56:05.221Z,7.85
2023-04-20T20:58:33.524Z,7.83
2023-04-20T21:01:01.889Z,7.82
2023-04-20T21:03:30.617Z,7.81
2023-04-20T21:05:59.045Z,7.78
2023-04-20T21:08:27.317Z,7.75
2023-04-20T21:10:55.686Z,7.89
2023-04-20T21:13:25.401Z,7.93
2023-04-20T21:15:53.710Z,7.82
2023-04-20T21:18:22.097Z,7.73
2023-04-20T21:20:50.378Z,7.85
2023-04-20T21:23:18.809Z,7.86
2023-04-20T21:25:47.113Z,7.77
2023-04-20T21:28:18.155Z,7.81
2023-04-20T21:30:47.830Z,7.92
2023-04-20T21:33:16.119Z,7.98
2023-04-20T21:35:44.406Z,8.04
2023-04-20T21:38:12.718Z,8.01
2023-04-20T21:40:41.067Z,8.03
2023-04-20T21:43:09.328Z,8.04
2023-04-20T21:45:37.740Z,8.07
2023-04-20T21:48:07.920Z,8.05
2023-04-20T21:50:37.912Z,8.07
2023-04-20T21:53:06.200Z,8.05
2023-04-20T21:55:34.427Z,8.04
2023-04-20T21:58:02.684Z,8.04
2023-04-20T22:00:30.993Z,7.99
2023-04-20T22:02:59.421Z,7.97
2023-04-20T22:05:29.434Z,7.91
2023-04-20T22:07:58.239Z,7.87
2023-04-20T22:10:26.624Z,7.87
2023-04-20T22:12:54.847Z,7.84
2023-04-20T22:15:23.459Z,7.73
2023-04-20T22:17:51.837Z,7.70
2023-04-20T22:20:20.105Z,7.71
2023-04-20T22:22:49.900Z,7.76
2023-04-20T22:25:18.245Z,7.70
2023-04-20T22:27:46.522Z,7.69
2023-04-20T22:30:15.302Z,7.69
2023-04-20T22:32:43.574Z,7.69
2023-04-20T22:35:11.903Z,7.62
2023-04-20T22:37:40.913Z,7.56
2023-04-20T22:40:12.397Z,7.60
2023-04-20T22:42:40.719Z,7.56
2023-04-20T22:45:10.880Z,7.48
2023-04-20T22:47:39.478Z,7.54
2023-04-20T22:50:09.742Z,7.50
2023-04-20T22:52:38.531Z,7.50
2023-04-20T22:55:08.049Z,7.46
2023-04-20T22:57:38.953Z,7.43
2023-04-20T23:00:10.776Z,7.31
2023-04-20T23:02:39.304Z,7.24
2023-04-20T23:05:08.448Z,7.20
2023-04-20T23:07:37.556Z,7.24
2023-04-20T23:10:07.182Z,7.18
2023-04-20T23:12:35.457Z,7.24
2023-04-20T23:15:05.994Z,7.25
2023-04-20T23:17:34.240Z,7.23
2023-04-20T23:20:02.698Z,7.20
2023-04-20T23:22:30.901Z,7.24
2023-04-20T23:24:59.099Z,7.12
2023-04-20T23:27:27.463Z,7.12
2023-04-20T23:29:55.688Z,7.16
2023-04-20T23:32:25.994Z,7.19
2023-04-20T23:34:54.340Z,7.19
2023-04-20T23:37:22.571Z,7.09
2023-04-20T23:39:50.787Z,7.04
2023-04-20T23:42:19.149Z,7.02
2023-04-20T23:44:47.379Z,6.88
2023-04-20T23:47:15.642Z,6.86
2023-04-20T23:49:45.315Z,6.82
2023-04-20T23:52:13.674Z,6.83
2023-04-20T23:54:41.927Z,6.76
2023-04-20T23:57:10.195Z,6.73
2023-04-20T23:59:38.542Z,6.69
